METAR Data
IDs: Format: Raw Decoded Include TAF

Data at: 2119 UTC 06 Dec 2019

KBAF 062053Z 00000KT 10SM OVC050 01/M01 A2990 RMK AO2 SLP132 60000 T00061011 56017
KBAF 061953Z 35005KT 9SM OVC041 01/M02 A2991 RMK AO2 SNE49 SLP135 P0000 T00061017
KBAF 061932Z 00000KT 4SM -SN BR BKN030 OVC039 01/M02 A2991 RMK AO2 P0000 T00061017
KBAF 061917Z 18004KT 2 1/2SM -SN BR BKN030 OVC039 01/M02 A2992 RMK AO2 P0000 T00061017
KBAF 061853Z 17006KT 4SM -SN SCT028 OVC039 01/M02 A2993 RMK AO2 SLP142 P0000 T00061022
KBAF 061844Z 18007KT 3SM -SN SCT028 OVC039 01/M02 A2993 RMK AO2 P0000 T00061022
KBAF 061818Z 19007KT 2SM R20/6000VP6000FT -SN BKN024 OVC033 01/M02 A2994 RMK AO2 P0000 T00061022
KBAF 061811Z 19009KT 1 1/2SM -SN BKN024 OVC032 01/M03 A2995 RMK AO2 P0000 T00061028
KBAF 061753Z 19009G18KT 2SM -SN BKN026 OVC034 01/M04 A2995 RMK AO2 SNB36 SLP149 P0000 60000 T00111039 10017 21039 57042
KBAF 061746Z 19014G18KT 2 1/2SM -SN BKN026 OVC036 01/M04 A2996 RMK AO2 SNB36 P0000 T00111039
KBAF 061653Z 17006KT 10SM OVC055 01/M06 A2999 RMK AO2 PRESFR SLP162 T00111061
KBAF 061553Z 19006KT 10SM OVC065 M01/M07 A3004 RMK AO2 SLP180 T10061067
KBAF 061453Z 20007KT 10SM OVC070 M02/M07 A3008 RMK AO2 SLP193 T10171072 51001
KBAF 061353Z 19006KT 10SM FEW070 M03/M07 A3008 RMK AO2 SLP193 T10281072
KBAF 061253Z 20006KT 10SM FEW070 M04/M08 A3008 RMK AO2 SLP193 T10391078
KBAF 061153Z 24004KT 10SM CLR M03/M08 A3008 RMK AO2 SLP192 T10331078 11011 21061 53003
KBAF 061053Z AUTO 22006KT 10SM SCT037 M04/M08 A3007 RMK AO2 SLP190 T10441083
KBAF 060953Z AUTO 15003KT 10SM BKN038 M02/M08 A3005 RMK AO2 SLP182 T10171078
KBAF 060853Z AUTO 26006KT 10SM OVC038 M01/M08 A3007 RMK AO2 SLP188 T10111078 51014
KBAF 060753Z AUTO 25003KT 10SM OVC038 M01/M08 A3007 RMK AO2 SLP187 T10111083
KBAF 060653Z AUTO 28007KT 10SM BKN037 M02/M09 A3005 RMK AO2 SLP181 T10171089
KBAF 060553Z AUTO 31004KT 10SM CLR M02/M09 A3002 RMK AO2 PK WND 30029/0503 SLP173 T10171094 10006 21022 51024
KBAF 060453Z AUTO 29011KT 10SM CLR M02/M09 A3000 RMK AO2 SLP165 T10221094 400441050
KBAF 060353Z AUTO 33009KT 10SM SCT044 M01/M09 A2998 RMK AO2 SLP159 T10111094
KBAF 060253Z 32015KT 10SM FEW041 M01/M09 A2995 RMK AO2 PK WND 33027/0235 SLP149 T10061089 53025
KBAF 060153Z 29015G23KT 10SM OVC040 00/M08 A2992 RMK AO2 PK WND 32030/0108 SLP138 T00001083
KBAF 060053Z 29015G27KT 10SM OVC042 00/M08 A2990 RMK AO2 PK WND 29029/2359 SLP131 T00001078
KBAF 052353Z 29017G27KT 10SM OVC044 01/M08 A2988 RMK AO2 PK WND 32032/2324 SLP125 T00061078 10039 20006 51038
KBAF 052253Z 28008G15KT 10SM OVC055 01/M09 A2985 RMK AO2 SLP114 T00111089
KBAF 052153Z 33015G20KT 10SM BKN075 01/M09 A2982 RMK AO2 PK WND 30031/2104 SLP104 T00111089
KBAF 052053Z 32018G25KT 10SM BKN047 BKN055 OVC070 02/M07 A2977 RMK AO2 SLP085 T00221067 53029
KBAF 051953Z 32013KT 10SM OVC060 03/M08 A2973 RMK AO2 SLP072 T00281078
KBAF 051853Z 29015G25KT 10SM SCT060 OVC070 03/M08 A2971 RMK AO2 PK WND 30030/1818 SLP067 T00331083
KBAF 051753Z 30020G29KT 10SM BKN075 04/M08 A2968 RMK AO2 PK WND 29030/1741 SLP056 T00391078 10044 21039 53009
KBAF 051653Z 28021G29KT 10SM SCT049 BKN120 04/M07 A2967 RMK AO2 PK WND 28030/1625 SLP052 T00441072
KBAF 051553Z 29018G33KT 10SM BKN048 04/M06 A2965 RMK AO2 PK WND 27033/1550 SLP048 T00391061
KBAF 051453Z 30013G22KT 10SM FEW100 03/M04 A2965 RMK AO2 PK WND 29027/1431 SLP046 T00331044 51024
KBAF 051353Z 28007KT 10SM FEW027 SCT036 02/M03 A2963 RMK AO2 SLP040 T00221028
KBAF 051253Z 25005KT 10SM BKN120 00/M03 A2960 RMK AO2 SLP031 T00001033
KBAF 051153Z VRB03KT 10SM CLR M02/M04 A2958 RMK AO2 SLP022 I6000 T10221039 10000 21050 53023 $
KBAF 051053Z AUTO 25003KT 9SM FEW110 M05/M06 A2955 RMK AO2 SLP013 T10501061 $
KBAF 050953Z AUTO 20006KT 7SM OVC090 M04/M06 A2952 RMK AO2 SLP004 I1000 T10391056 $
KBAF 050924Z AUTO 00000KT 3SM BR OVC090 M04/M05 A2952 RMK AO2 I1000 T10391050 $